Time;durP1;ratioP1;P1;durP2;ratioP2;P2;SDS_P1;SDS_P2;PMS_P1;PMS_P2;Temp;Humidity;BMP_temperature;BMP_pressure;BME280_temperature;BME280_humidity;BME280_pressure;Samples;Min_cycle;Max_cycle;Signal;HPM_P1;HPM_P2
2023/01/25 00:01:46;;;;;;;31.83;19.88;;;2.40;99.90;;;;;;5036464;28;20052;-75
2023/01/25 00:04:12;;;;;;;27.13;17.30;;;2.50;99.90;;;;;;5052400;28;20037;-76
2023/01/25 00:06:37;;;;;;;32.85;19.52;;;2.50;99.90;;;;;;5052411;28;20495;-75
2023/01/25 00:09:04;;;;;;;31.08;19.25;;;2.50;99.90;;;;;;5052961;28;20124;-76
2023/01/25 00:11:29;;;;;;;29.88;17.83;;;2.50;99.90;;;;;;5036426;28;20048;-75
2023/01/25 00:13:56;;;;;;;32.97;19.52;;;2.30;99.90;;;;;;5051835;28;20045;-76
2023/01/25 00:16:23;;;;;;;31.20;18.67;;;2.40;99.90;;;;;;5035996;28;20045;-76
2023/01/25 00:18:48;;;;;;;30.80;18.73;;;2.40;99.90;;;;;;5052885;28;20044;-75
2023/01/25 00:21:22;;;;;;;31.58;19.13;;;2.40;99.90;;;;;;5052522;28;20033;-76
2023/01/25 00:23:48;;;;;;;29.73;17.80;;;2.40;99.90;;;;;;5052079;28;20036;-75
2023/01/25 00:26:15;;;;;;;31.85;20.30;;;2.40;99.90;;;;;;5035837;28;20043;-75
2023/01/25 00:28:40;;;;;;;34.35;20.23;;;2.40;99.90;;;;;;5052765;28;20445;-76
2023/01/25 00:31:09;;;;;;;28.17;18.65;;;2.30;99.90;;;;;;5052434;28;20120;-75
2023/01/25 00:33:49;;;;;;;29.85;18.17;;;2.30;99.90;;;;;;5051832;28;20095;-75
2023/01/25 00:36:37;;;;;;;30.27;19.55;;;2.20;99.90;;;;;;5052453;28;20033;-76
2023/01/25 00:39:04;;;;;;;32.22;18.63;;;2.20;99.90;;;;;;5052368;28;20041;-75
2023/01/25 00:41:30;;;;;;;31.13;18.20;;;2.10;99.90;;;;;;5052250;28;20077;-76
2023/01/25 00:43:56;;;;;;;35.83;21.17;;;2.10;99.90;;;;;;5051630;28;20080;-76
2023/01/25 00:46:22;;;;;;;31.70;19.05;;;2.10;99.90;;;;;;5053406;28;20503;-75
2023/01/25 00:48:47;;;;;;;36.15;20.08;;;2.00;99.90;;;;;;5052210;28;20131;-75
2023/01/25 00:51:14;;;;;;;34.03;20.27;;;2.10;99.90;;;;;;5035614;28;20041;-75
2023/01/25 00:53:40;;;;;;;32.40;20.65;;;2.20;99.90;;;;;;5051079;28;20044;-75
2023/01/25 00:56:06;;;;;;;33.15;19.70;;;2.20;99.90;;;;;;5051911;28;20447;-75
2023/01/25 00:58:31;;;;;;;35.00;20.45;;;2.20;99.90;;;;;;5051985;28;20122;-75
2023/01/25 01:00:57;;;;;;;32.53;20.02;;;2.10;99.90;;;;;;5051697;28;20518;-75
2023/01/25 01:03:23;;;;;;;37.45;21.15;;;2.20;99.90;;;;;;5051010;28;20075;-76
2023/01/25 01:05:59;;;;;;;34.45;20.73;;;2.10;99.90;;;;;;5051622;28;20036;-75
2023/01/25 01:08:25;;;;;;;32.90;20.58;;;2.10;99.90;;;;;;5051943;28;20087;-76
2023/01/25 01:10:50;;;;;;;36.67;21.17;;;2.10;99.90;;;;;;5051973;28;20491;-76
2023/01/25 01:13:16;;;;;;;36.45;21.50;;;2.10;99.90;;;;;;5050873;28;20044;-75
2023/01/25 01:15:41;;;;;;;37.13;22.88;;;2.00;99.90;;;;;;5051539;28;20040;-76
2023/01/25 01:18:07;;;;;;;34.67;21.67;;;1.90;99.90;;;;;;5033913;28;20041;-75
2023/01/25 01:20:33;;;;;;;37.03;21.02;;;2.10;99.90;;;;;;5051113;28;20033;-76
2023/01/25 01:22:58;;;;;;;39.58;22.70;;;2.10;99.90;;;;;;5050785;28;20090;-75
2023/01/25 01:25:24;;;;;;;35.97;20.80;;;2.10;99.90;;;;;;5051464;28;20036;-75
2023/01/25 01:27:49;;;;;;;41.13;24.05;;;2.10;99.90;;;;;;5051330;28;20045;-75
2023/01/25 01:30:15;;;;;;;34.00;21.30;;;2.00;99.90;;;;;;5051483;28;20045;-76
2023/01/25 01:32:40;;;;;;;36.20;21.38;;;2.00;99.90;;;;;;5050490;28;20049;-76
2023/01/25 01:35:06;;;;;;;37.25;21.70;;;2.10;99.90;;;;;;5051054;28;20041;-75
2023/01/25 01:37:32;;;;;;;35.80;21.70;;;1.90;99.90;;;;;;5034301;28;20441;-75
2023/01/25 01:39:57;;;;;;;35.90;21.00;;;2.00;99.90;;;;;;5051192;28;20450;-75
2023/01/25 01:42:23;;;;;;;36.15;22.48;;;2.10;99.90;;;;;;5050248;28;20125;-76
2023/01/25 01:44:53;;;;;;;38.35;23.10;;;2.00;99.90;;;;;;5051243;28;20041;-76
2023/01/25 01:47:25;;;;;;;38.20;22.75;;;2.10;99.90;;;;;;5050909;28;20503;-76
2023/01/25 01:49:56;;;;;;;35.53;21.15;;;2.10;99.90;;;;;;5050868;28;20216;-76
2023/01/25 05:12:18;;;;;;;68.50;35.72;;;1.40;99.90;;;;;;5119214;27;1248865;-80
2023/01/25 05:14:43;;;;;;;65.60;35.63;;;1.60;99.90;;;;;;5149169;28;20840;-81
2023/01/25 05:17:09;;;;;;;70.50;35.47;;;1.40;99.90;;;;;;5148447;28;20047;-81
2023/01/25 05:19:35;;;;;;;62.45;33.65;;;1.50;99.90;;;;;;5136469;28;20043;-80
2023/01/25 05:22:06;;;;;;;63.08;32.50;;;1.30;99.90;;;;;;5127819;28;20031;-80
2023/01/25 05:24:33;;;;;;;62.60;33.20;;;1.30;99.90;;;;;;5129764;28;20156;-81
2023/01/25 05:26:59;;;;;;;64.85;33.92;;;1.40;99.90;;;;;;5113195;22;20049;-70
2023/01/25 05:29:45;;;;;;;67.75;35.42;;;1.50;99.90;;;;;;5087053;28;20040;-71
2023/01/25 05:32:13;;;;;;;60.03;32.58;;;1.20;99.90;;;;;;5086261;28;20056;-71
2023/01/25 05:34:39;;;;;;;69.30;34.38;;;1.30;99.90;;;;;;5086855;28;20118;-72
2023/01/25 05:37:06;;;;;;;65.72;32.78;;;1.30;99.90;;;;;;5086758;28;20492;-72
2023/01/25 05:39:32;;;;;;;65.75;34.35;;;1.30;99.90;;;;;;5087006;28;20072;-72
2023/01/25 05:41:58;;;;;;;64.40;33.05;;;1.20;99.90;;;;;;5088245;28;20117;-72
2023/01/25 05:44:24;;;;;;;65.95;33.25;;;1.20;99.90;;;;;;5088237;28;20035;-72
2023/01/25 05:46:50;;;;;;;64.47;33.58;;;1.10;99.90;;;;;;5086777;28;20101;-72
2023/01/25 05:49:16;;;;;;;66.28;32.90;;;1.20;99.90;;;;;;5086719;28;20063;-73
2023/01/25 05:51:42;;;;;;;62.20;32.42;;;1.30;99.90;;;;;;5087876;28;20071;-73
2023/01/25 05:54:12;;;;;;;63.63;33.28;;;1.20;99.90;;;;;;5086985;28;20494;-73
2023/01/25 05:56:38;;;;;;;68.95;35.30;;;1.40;99.90;;;;;;5086922;28;20055;-73
2023/01/25 05:59:04;;;;;;;67.38;35.00;;;1.30;99.90;;;;;;5086594;28;20040;-72
2023/01/25 06:01:29;;;;;;;65.22;34.13;;;1.20;99.90;;;;;;5087501;28;20083;-72
2023/01/25 06:03:55;;;;;;;66.10;34.53;;;1.30;99.90;;;;;;5087677;28;20071;-72
2023/01/25 06:06:21;;;;;;;67.38;35.47;;;1.20;99.90;;;;;;5086545;28;20048;-70
2023/01/25 06:08:47;;;;;;;71.65;35.60;;;1.00;99.90;;;;;;5086537;28;20033;-73
2023/01/25 06:11:16;;;;;;;65.18;33.10;;;1.00;99.90;;;;;;5067705;28;20071;-72
2023/01/25 06:13:41;;;;;;;67.65;33.88;;;1.00;99.90;;;;;;5072557;28;20032;-70
2023/01/25 06:16:07;;;;;;;64.82;33.97;;;1.20;99.90;;;;;;5072320;28;20147;-70
2023/01/25 06:18:34;;;;;;;62.63;33.20;;;1.20;99.90;;;;;;5073676;28;20037;-70
2023/01/25 06:21:00;;;;;;;64.90;34.97;;;1.10;99.90;;;;;;5072183;28;20051;-70
2023/01/25 06:23:27;;;;;;;67.22;33.97;;;1.30;99.90;;;;;;5073823;28;20043;-71
2023/01/25 06:26:00;;;;;;;71.63;36.90;;;1.20;99.90;;;;;;5072175;28;20047;-71
2023/01/25 06:28:29;;;;;;;72.63;35.08;;;1.30;99.90;;;;;;5073763;28;20081;-71
2023/01/25 06:30:55;;;;;;;66.90;33.50;;;1.20;99.90;;;;;;5071746;28;20048;-71
2023/01/25 06:33:20;;;;;;;71.35;36.53;;;1.20;99.90;;;;;;5072682;28;20049;-71
2023/01/25 06:35:46;;;;;;;64.95;33.83;;;1.30;99.90;;;;;;5073438;28;20540;-71
2023/01/25 06:38:11;;;;;;;72.60;37.95;;;1.40;99.90;;;;;;5073867;28;20509;-71
2023/01/25 06:40:37;;;;;;;67.00;34.58;;;1.40;99.90;;;;;;5073189;28;20495;-71
2023/01/25 06:43:10;;;;;;;64.88;33.72;;;1.30;99.90;;;;;;5072300;28;20127;-71
2023/01/25 06:45:36;;;;;;;67.18;33.45;;;1.40;99.90;;;;;;5073223;28;20537;-71
2023/01/25 06:48:01;;;;;;;67.75;34.42;;;1.20;99.90;;;;;;5073272;28;20068;-71
2023/01/25 06:50:27;;;;;;;63.75;32.67;;;1.20;99.90;;;;;;5072098;28;20507;-71
2023/01/25 06:52:53;;;;;;;65.13;33.13;;;1.10;99.90;;;;;;5072159;28;20497;-71
2023/01/25 06:55:19;;;;;;;66.68;35.10;;;1.20;99.90;;;;;;5073273;28;20474;-71
2023/01/25 06:57:45;;;;;;;60.75;32.60;;;1.20;99.90;;;;;;5073006;28;20044;-71
2023/01/25 07:00:11;;;;;;;64.03;34.78;;;1.00;99.90;;;;;;5071501;28;20033;-71
2023/01/25 07:02:37;;;;;;;59.17;31.48;;;1.10;99.90;;;;;;5071406;28;20079;-71
2023/01/25 07:05:03;;;;;;;55.92;29.67;;;1.10;99.90;;;;;;5071696;28;20459;-71
2023/01/25 07:07:29;;;;;;;59.95;30.63;;;1.10;99.90;;;;;;5073273;28;20371;-71
2023/01/25 07:09:54;;;;;;;67.75;34.55;;;1.20;99.90;;;;;;5072058;28;20051;-72
2023/01/25 07:12:21;;;;;;;60.65;34.63;;;1.00;99.90;;;;;;5071250;28;20036;-73
2023/01/25 07:14:48;;;;;;;58.45;30.30;;;1.10;99.90;;;;;;5054691;28;20134;-71
2023/01/25 07:17:14;;;;;;;63.20;34.10;;;1.00;99.90;;;;;;5071565;28;20087;-72
2023/01/25 07:19:39;;;;;;;56.80;31.58;;;1.00;99.90;;;;;;5071290;28;20076;-72
2023/01/25 07:22:05;;;;;;;51.83;28.75;;;0.90;99.90;;;;;;5071442;28;20056;-72
2023/01/25 07:24:30;;;;;;;49.55;26.85;;;0.90;99.90;;;;;;5070370;28;20491;-72
2023/01/25 07:26:56;;;;;;;53.15;27.95;;;1.00;99.90;;;;;;5071241;28;20040;-72
2023/01/25 07:29:21;;;;;;;56.10;27.75;;;0.90;99.90;;;;;;5071448;28;20051;-72
2023/01/25 07:31:47;;;;;;;53.45;28.48;;;0.70;99.90;;;;;;5072139;28;20040;-72
2023/01/25 07:34:13;;;;;;;50.38;26.90;;;0.70;99.90;;;;;;5072426;28;20040;-72
2023/01/25 07:36:39;;;;;;;49.90;26.92;;;0.80;99.90;;;;;;5072678;28;20044;-71
2023/01/25 07:39:08;;;;;;;51.97;27.27;;;0.80;99.90;;;;;;5071333;28;20056;-72
2023/01/25 07:41:33;;;;;;;52.30;27.10;;;0.70;99.90;;;;;;5070612;28;20557;-71
2023/01/25 07:43:59;;;;;;;52.80;27.23;;;0.70;99.90;;;;;;5072090;28;20036;-71
2023/01/25 07:46:25;;;;;;;52.05;27.85;;;0.70;99.90;;;;;;5054182;28;20061;-71
2023/01/25 07:48:52;;;;;;;57.92;31.58;;;0.70;99.90;;;;;;5070843;28;20098;-71
2023/01/25 07:51:21;;;;;;;54.28;27.08;;;0.60;99.90;;;;;;5070548;28;20143;-71
2023/01/25 07:53:55;;;;;;;53.88;28.92;;;0.70;99.90;;;;;;5071859;28;20068;-71
2023/01/25 07:56:23;;;;;;;59.35;31.17;;;0.70;99.90;;;;;;5070463;28;20540;-71
2023/01/25 07:58:52;;;;;;;60.72;32.55;;;0.60;99.90;;;;;;5071768;28;20048;-71
2023/01/25 08:01:19;;;;;;;54.08;28.80;;;0.60;99.90;;;;;;5053372;28;20059;-71
2023/01/25 08:03:46;;;;;;;60.45;29.95;;;0.80;99.90;;;;;;5071984;28;20067;-71
2023/01/25 08:06:12;;;;;;;55.00;29.60;;;0.70;99.90;;;;;;5070628;28;20437;-71
2023/01/25 08:08:45;;;;;;;54.88;30.02;;;0.90;99.90;;;;;;5070579;28;20033;-71
2023/01/25 08:11:23;;;;;;;53.83;29.10;;;0.90;99.90;;;;;;5071493;28;20054;-71
2023/01/25 08:13:48;;;;;;;54.67;28.65;;;0.90;99.90;;;;;;5070509;28;20044;-71
2023/01/25 08:16:16;;;;;;;53.28;28.63;;;0.90;99.90;;;;;;5070241;28;20592;-71
2023/01/25 08:18:42;;;;;;;51.47;27.75;;;0.80;99.90;;;;;;5070688;28;20040;-71
2023/01/25 08:21:08;;;;;;;51.50;29.70;;;0.70;99.90;;;;;;5069902;28;20519;-71
2023/01/25 08:23:34;;;;;;;52.05;28.63;;;0.80;99.90;;;;;;5053426;28;20094;-71
2023/01/25 08:26:07;;;;;;;52.30;28.52;;;0.70;99.90;;;;;;5069981;28;20044;-71
2023/01/25 08:28:33;;;;;;;;;;;0.60;99.90;;;;;;5070721;28;20075;-72
2023/01/25 08:31:14;;;;;;;51.78;28.23;;;0.60;99.90;;;;;;5071273;28;20377;-71
2023/01/25 08:33:40;;;;;;;54.83;28.23;;;0.60;99.90;;;;;;5070350;28;20044;-71
2023/01/25 08:36:07;;;;;;;52.03;27.45;;;0.50;99.90;;;;;;5069592;28;20048;-72
2023/01/25 08:38:33;;;;;;;52.72;28.27;;;0.60;99.90;;;;;;5069861;28;20525;-71
2023/01/25 08:41:06;;;;;;;54.13;26.85;;;0.70;99.90;;;;;;5069340;28;20041;-72
2023/01/25 08:43:32;;;;;;;47.58;27.05;;;0.70;99.90;;;;;;5070126;28;20051;-72
2023/01/25 08:45:58;;;;;;;51.33;26.65;;;0.60;99.90;;;;;;5069804;28;20041;-72
2023/01/25 08:48:23;;;;;;;58.25;29.88;;;0.60;99.90;;;;;;5069767;28;20093;-72
2023/01/25 08:50:49;;;;;;;61.67;32.00;;;0.60;99.90;;;;;;5069305;28;20407;-72
2023/01/25 08:53:14;;;;;;;53.88;29.73;;;0.50;99.90;;;;;;5069859;28;20052;-69
2023/01/25 08:55:41;;;;;;;54.72;28.65;;;0.70;99.90;;;;;;5071287;28;20044;-69
2023/01/25 08:58:10;;;;;;;55.70;29.52;;;0.80;99.90;;;;;;5069727;28;20410;-72
2023/01/25 09:00:39;;;;;;;52.58;28.25;;;0.90;99.90;;;;;;5070999;28;20076;-71
2023/01/25 09:03:06;;;;;;;55.10;29.55;;;0.90;99.90;;;;;;5069564;28;20055;-70
2023/01/25 09:05:36;;;;;;;57.05;29.55;;;0.80;99.90;;;;;;5071196;28;20487;-71
2023/01/25 09:08:03;;;;;;;52.53;28.17;;;1.00;99.90;;;;;;5070121;28;20086;-72
2023/01/25 09:10:29;;;;;;;51.95;28.27;;;0.70;99.90;;;;;;5070140;28;20098;-71
2023/01/25 09:12:55;;;;;;;50.72;29.13;;;1.00;99.90;;;;;;5069824;28;20037;-70
2023/01/25 09:15:21;;;;;;;55.08;29.45;;;0.70;99.90;;;;;;5071132;28;20106;-69
2023/01/25 09:17:53;;;;;;;54.90;28.85;;;0.90;99.90;;;;;;5071155;28;20032;-69
2023/01/25 09:20:19;;;;;;;57.55;29.55;;;1.00;99.90;;;;;;5069768;28;20044;-69
2023/01/25 09:22:45;;;;;;;52.75;29.63;;;1.00;99.90;;;;;;5069866;28;20548;-69
2023/01/25 09:25:10;;;;;;;54.70;28.92;;;0.80;99.90;;;;;;5069723;28;20040;-71
2023/01/25 09:27:36;;;;;;;51.42;26.67;;;0.70;99.90;;;;;;5071405;28;20028;-71
2023/01/25 09:30:07;;;;;;;54.78;28.02;;;0.80;99.90;;;;;;5071233;28;20041;-71
2023/01/25 09:32:32;;;;;;;54.00;29.08;;;1.00;99.90;;;;;;5071398;28;20040;-71
2023/01/25 09:34:58;;;;;;;57.25;29.55;;;0.90;99.90;;;;;;5069749;28;20525;-71
2023/01/25 09:37:23;;;;;;;51.50;28.50;;;0.80;99.90;;;;;;5071347;28;20075;-71
2023/01/25 09:39:49;;;;;;;63.00;32.33;;;0.80;99.90;;;;;;5069641;28;20044;-71
2023/01/25 09:42:19;;;;;;;57.50;29.98;;;0.80;99.90;;;;;;5069550;28;20487;-71
2023/01/25 09:44:45;;;;;;;52.53;27.65;;;1.00;99.90;;;;;;5069901;28;20137;-71
2023/01/25 09:47:40;;;;;;;52.40;28.40;;;0.90;99.90;;;;;;5072059;28;20079;-71
2023/01/25 09:50:28;;;;;;;59.05;29.45;;;0.80;99.90;;;;;;5073756;28;20058;-71
2023/01/25 09:53:14;;;;;;;54.30;29.38;;;0.90;99.90;;;;;;5073268;28;20119;-71
2023/01/25 09:55:41;;;;;;;58.15;30.25;;;0.90;99.90;;;;;;5074624;28;20059;-71
2023/01/25 09:58:13;;;;;;;58.45;30.15;;;0.80;99.90;;;;;;5074541;28;20491;-71
2023/01/25 10:00:44;;;;;;;59.17;30.95;;;0.60;99.90;;;;;;5074470;28;20051;-71
2023/01/25 10:03:33;;;;;;;61.47;31.08;;;0.70;99.90;;;;;;5074421;28;20398;-71
2023/01/25 10:06:01;;;;;;;59.17;29.17;;;0.50;99.90;;;;;;5074112;28;20564;-71
2023/01/25 10:08:47;;;;;;;61.08;30.27;;;0.80;99.90;;;;;;5072947;28;20115;-71
2023/01/25 10:11:20;;;;;;;62.40;31.92;;;0.80;99.90;;;;;;5073975;28;20123;-71
2023/01/25 10:13:45;;;;;;;61.50;30.63;;;0.70;99.90;;;;;;5074179;28;20046;-71
2023/01/25 10:16:38;;;;;;;58.65;28.08;;;0.80;99.90;;;;;;5073889;28;20040;-71
2023/01/25 10:19:21;;;;;;;57.78;29.50;;;0.80;99.90;;;;;;5069228;28;20065;-71
2023/01/25 10:22:19;;;;;;;56.25;29.20;;;0.50;99.90;;;;;;5073749;28;20040;-71
2023/01/25 10:25:16;;;;;;;61.50;28.67;;;0.70;99.90;;;;;;5065644;28;20472;-70
2023/01/25 10:27:53;;;;;;;59.92;28.80;;;0.50;99.90;;;;;;5072837;28;20473;-71
2023/01/25 10:30:28;;;;;;;59.92;29.48;;;0.50;99.90;;;;;;5073871;28;20052;-71
2023/01/25 10:32:57;;;;;;;60.35;29.58;;;0.60;99.90;;;;;;5073472;28;20581;-71
2023/01/25 10:35:29;;;;;;;56.22;30.77;;;0.40;99.90;;;;;;5072235;28;20045;-70
2023/01/25 10:38:00;;;;;;;62.28;29.80;;;0.50;99.90;;;;;;5073903;28;20465;-71
2023/01/25 10:40:29;;;;;;;60.22;28.45;;;0.50;99.90;;;;;;5073633;28;20498;-71
2023/01/25 10:43:01;;;;;;;60.70;28.85;;;0.60;99.90;;;;;;5073404;28;20158;-71
2023/01/25 10:45:27;;;;;;;61.22;30.15;;;0.60;99.90;;;;;;5073582;28;20089;-71
2023/01/25 10:48:02;;;;;;;63.45;33.05;;;0.60;99.90;;;;;;5073543;28;20032;-71
2023/01/25 10:50:45;;;;;;;65.70;28.63;;;0.40;99.90;;;;;;5072027;28;20048;-71
2023/01/25 10:53:42;;;;;;;67.30;33.22;;;0.50;99.90;;;;;;5072368;28;20052;-71
2023/01/25 10:56:24;;;;;;;62.15;30.20;;;0.50;99.90;;;;;;5065105;28;20048;-69
2023/01/25 10:59:03;;;;;;;55.30;27.08;;;0.50;99.90;;;;;;5073341;28;20075;-71
2023/01/25 11:01:32;;;;;;;59.45;26.33;;;0.70;99.90;;;;;;5072938;28;20046;-71
2023/01/25 11:04:00;;;;;;;63.85;28.30;;;0.50;99.90;;;;;;5073150;28;20052;-70
2023/01/25 11:06:36;;;;;;;61.50;30.10;;;0.70;99.90;;;;;;5073050;28;20036;-71
2023/01/25 11:09:21;;;;;;;57.45;26.95;;;0.60;99.90;;;;;;5071665;28;20056;-71
2023/01/25 11:12:10;;;;;;;56.88;27.45;;;0.60;99.90;;;;;;5072584;28;20052;-71
2023/01/25 11:14:35;;;;;;;56.15;27.13;;;0.60;99.90;;;;;;5062292;28;20578;-71
2023/01/25 11:17:04;;;;;;;54.50;26.30;;;0.60;99.90;;;;;;5071238;28;20123;-71
2023/01/25 11:19:35;;;;;;;58.13;27.08;;;0.70;99.90;;;;;;5071475;28;20051;-71
2023/01/25 11:22:04;;;;;;;54.65;26.75;;;0.80;99.90;;;;;;5071016;28;20170;-71
2023/01/25 11:24:33;;;;;;;58.78;27.17;;;0.70;99.90;;;;;;5072678;28;20093;-71
2023/01/25 11:27:19;;;;;;;54.15;27.73;;;0.60;99.90;;;;;;5079454;23;20048;-75
2023/01/25 11:30:05;;;;;;;54.00;25.60;;;0.80;99.90;;;;;;5092143;28;20059;-75
2023/01/25 11:32:31;;;;;;;62.92;29.33;;;0.80;99.90;;;;;;5092954;28;20036;-75
2023/01/25 11:34:57;;;;;;;61.83;29.05;;;0.80;99.90;;;;;;5075085;28;20039;-75
2023/01/25 11:37:27;;;;;;;56.88;26.98;;;0.60;99.90;;;;;;5074732;28;20051;-75
2023/01/25 11:40:12;;;;;;;57.33;25.85;;;0.80;99.90;;;;;;5092765;28;20040;-75
2023/01/25 11:42:51;;;;;;;59.17;27.48;;;0.70;99.90;;;;;;5058025;28;20040;-75
2023/01/25 11:45:40;;;;;;;61.67;29.65;;;0.70;99.90;;;;;;5091449;28;20108;-75
2023/01/25 11:48:27;;;;;;;57.15;27.55;;;0.80;99.90;;;;;;5064691;28;20048;-75
2023/01/25 11:51:07;;;;;;;59.28;28.08;;;0.70;99.90;;;;;;5092602;28;20044;-76
2023/01/25 11:53:44;;;;;;;63.85;28.08;;;0.90;99.90;;;;;;5074504;28;20035;-75
2023/01/25 11:56:43;;;;;;;62.42;26.50;;;0.70;99.90;;;;;;5075156;28;20055;-75
2023/01/25 11:59:29;;;;;;;62.38;29.00;;;0.80;99.90;;;;;;5092808;28;20123;-75
2023/01/25 12:02:32;;;;;;;62.72;29.58;;;1.00;99.90;;;;;;5074082;28;20048;-75
2023/01/25 12:05:29;;;;;;;59.75;26.45;;;1.00;99.90;;;;;;5092708;28;20506;-71
2023/01/25 12:07:57;;;;;;;58.60;27.83;;;1.20;99.90;;;;;;5091907;28;20051;-71
2023/01/25 12:10:26;;;;;;;58.78;27.10;;;1.20;99.90;;;;;;5073390;28;20106;-70
2023/01/25 12:13:15;;;;;;;60.85;27.33;;;1.40;99.90;;;;;;5073723;28;20051;-71
2023/01/25 12:15:59;;;;;;;67.28;27.48;;;1.60;99.90;;;;;;5092344;28;20040;-71
2023/01/25 12:18:43;;;;;;;59.28;28.80;;;1.60;99.90;;;;;;5074545;28;20044;-71
2023/01/25 12:21:44;;;;;;;56.92;26.63;;;1.70;99.90;;;;;;5073495;28;20048;-71
2023/01/25 12:24:21;;;;;;;56.08;26.67;;;1.70;99.90;;;;;;5059115;28;20040;-70
2023/01/25 12:27:08;;;;;;;62.00;26.77;;;1.60;99.90;;;;;;5091913;28;20036;-70
2023/01/25 12:29:41;;;;;;;52.60;24.45;;;1.90;99.90;;;;;;5073952;28;20116;-70
2023/01/25 12:32:39;;;;;;;53.05;25.25;;;1.90;99.90;;;;;;5091090;28;20452;-70
2023/01/25 12:35:31;;;;;;;47.38;23.77;;;2.10;99.90;;;;;;5073725;28;20520;-71
2023/01/25 12:38:01;;;;;;;52.95;25.88;;;2.00;99.90;;;;;;5091938;28;20450;-70
2023/01/25 12:40:46;;;;;;;58.22;26.88;;;2.10;99.90;;;;;;5091871;28;20123;-70
2023/01/25 12:43:23;;;;;;;51.25;24.35;;;2.20;99.90;;;;;;5092056;28;20564;-69
2023/01/25 12:45:52;;;;;;;53.80;27.70;;;2.30;99.90;;;;;;5091979;28;20035;-69
2023/01/25 12:48:26;;;;;;;55.13;28.17;;;2.40;99.90;;;;;;5091839;28;20414;-69
2023/01/25 12:50:57;;;;;;;54.30;27.00;;;2.40;99.90;;;;;;5091481;28;20043;-69
2023/01/25 12:53:42;;;;;;;57.90;28.17;;;2.30;99.90;;;;;;5091933;28;20048;-69
2023/01/25 12:56:39;;;;;;;51.10;24.58;;;2.40;99.90;;;;;;5091958;28;20109;-70
2023/01/25 12:59:20;;;;;;;49.03;22.88;;;2.40;99.90;;;;;;5091625;28;20046;-70
2023/01/25 13:02:08;;;;;;;52.58;23.55;;;2.40;99.90;;;;;;5091524;28;20043;-70
2023/01/25 13:05:16;;;;;;;54.00;24.08;;;2.40;99.90;;;;;;5091721;28;20040;-69
2023/01/25 13:07:57;;;;;;;51.72;24.40;;;2.40;99.90;;;;;;5091990;28;20490;-69
2023/01/25 13:10:33;;;;;;;51.03;23.73;;;2.40;99.90;;;;;;5091705;28;20422;-69
2023/01/25 13:13:03;;;;;;;48.60;22.98;;;2.60;99.90;;;;;;5091590;28;20051;-69
2023/01/25 13:15:43;;;;;;;51.45;25.10;;;2.50;99.90;;;;;;5091610;28;20036;-69
2023/01/25 13:18:27;;;;;;;54.42;25.15;;;2.60;99.90;;;;;;5091714;28;20040;-69
2023/01/25 13:20:55;;;;;;;48.67;23.25;;;2.60;99.90;;;;;;5091195;28;20054;-70
2023/01/25 13:23:42;;;;;;;48.67;22.75;;;2.50;99.90;;;;;;5094816;28;20036;-69
2023/01/25 13:26:19;;;;;;;53.30;23.17;;;2.40;99.90;;;;;;5095327;28;20039;-69
2023/01/25 13:28:47;;;;;;;51.30;22.05;;;2.50;99.90;;;;;;5095537;28;20040;-70
2023/01/25 13:31:37;;;;;;;47.13;22.05;;;2.60;99.90;;;;;;5076915;28;20585;-69
2023/01/25 13:34:07;;;;;;;49.65;23.58;;;2.50;99.90;;;;;;5095204;28;20051;-69
2023/01/25 13:36:42;;;;;;;54.83;23.05;;;2.40;99.90;;;;;;5095118;28;20050;-69
2023/01/25 13:39:26;;;;;;;53.72;23.30;;;2.50;99.90;;;;;;5095473;28;20048;-69
2023/01/25 13:41:58;;;;;;;;;;;2.50;99.90;;;;;;5095387;28;20040;-69
2023/01/25 13:44:27;;;;;;;51.25;23.15;;;2.40;99.90;;;;;;5095294;28;19923;-70
2023/01/25 13:47:04;;;;;;;49.53;24.75;;;2.40;99.90;;;;;;5088314;28;20055;-69
2023/01/25 13:49:41;;;;;;;58.42;26.83;;;2.30;99.90;;;;;;5072250;28;20040;-69
2023/01/25 13:52:13;;;;;;;47.35;22.52;;;2.50;99.90;;;;;;5094453;28;20040;-69
2023/01/25 13:54:43;;;;;;;58.25;26.15;;;2.50;99.90;;;;;;5094668;28;20044;-70
2023/01/25 13:57:18;;;;;;;51.88;23.95;;;2.50;99.90;;;;;;5094484;28;20166;-69
2023/01/25 13:59:43;;;;;;;60.33;26.95;;;2.40;99.90;;;;;;5063094;28;20040;-69
2023/01/25 14:02:21;;;;;;;57.10;25.88;;;2.20;99.90;;;;;;5072136;28;20115;-69
2023/01/25 14:04:49;;;;;;;57.63;25.85;;;2.40;99.90;;;;;;5094424;28;20079;-69
2023/01/25 14:07:17;;;;;;;52.78;24.98;;;2.30;99.90;;;;;;5076213;28;20036;-69
2023/01/25 14:09:43;;;;;;;53.00;24.77;;;2.30;99.90;;;;;;5094343;28;20518;-69
2023/01/25 14:12:17;;;;;;;51.70;23.65;;;2.20;99.90;;;;;;5093905;28;20044;-69
2023/01/25 14:14:42;;;;;;;;;;;2.40;99.90;;;;;;5095022;28;20071;-69
2023/01/25 14:17:08;;;;;;;49.70;24.13;;;2.40;99.90;;;;;;5094328;28;20387;-70
2023/01/25 14:19:39;;;;;;;58.88;24.90;;;2.20;99.90;;;;;;5094616;28;20071;-69
2023/01/25 14:22:29;;;;;;;55.70;24.52;;;2.30;99.90;;;;;;5076797;28;20048;-70
2023/01/25 14:25:10;;;;;;;51.53;24.60;;;2.30;99.90;;;;;;5094466;28;20040;-69
2023/01/25 14:27:48;;;;;;;53.42;25.02;;;2.40;99.90;;;;;;5094071;28;20071;-69
2023/01/25 14:30:26;;;;;;;55.70;24.75;;;2.40;99.90;;;;;;5094085;28;20055;-69
2023/01/25 14:32:53;;;;;;;46.08;21.23;;;2.00;99.90;;;;;;5093087;28;20032;-69
2023/01/25 14:35:30;;;;;;;53.50;23.60;;;2.20;99.90;;;;;;5093772;28;20036;-69
2023/01/25 14:37:56;;;;;;;50.13;24.38;;;2.20;99.90;;;;;;5093728;28;20044;-69
2023/01/25 14:40:24;;;;;;;57.97;25.70;;;2.10;99.90;;;;;;5093691;28;20554;-69
2023/01/25 14:42:51;;;;;;;52.45;25.85;;;2.30;99.90;;;;;;5075489;28;20036;-69
2023/01/25 14:45:17;;;;;;;52.15;23.88;;;2.20;99.90;;;;;;5093471;28;20506;-69
2023/01/25 14:47:43;;;;;;;53.25;24.50;;;2.10;99.90;;;;;;5093771;28;20036;-70
2023/01/25 14:50:27;;;;;;;58.90;25.70;;;2.10;99.90;;;;;;5093581;28;20451;-69
2023/01/25 14:52:53;;;;;;;52.75;25.50;;;2.10;99.90;;;;;;5093214;28;20127;-69
2023/01/25 14:55:18;;;;;;;51.63;25.38;;;2.20;99.90;;;;;;5093383;28;20075;-69
2023/01/25 14:57:45;;;;;;;50.08;25.15;;;2.10;99.90;;;;;;5093488;28;20501;-69
2023/01/25 15:00:30;;;;;;;53.35;24.60;;;2.20;99.90;;;;;;5075546;28;20044;-69
2023/01/25 15:02:59;;;;;;;57.15;24.20;;;2.10;99.90;;;;;;5075015;28;20044;-69
2023/01/25 15:05:30;;;;;;;53.83;23.52;;;2.10;99.90;;;;;;5093582;28;20031;-69
2023/01/25 15:08:06;;;;;;;53.80;23.98;;;2.00;99.90;;;;;;5093427;28;20616;-70
2023/01/25 15:10:36;;;;;;;60.08;25.75;;;2.00;99.90;;;;;;5075419;28;20133;-69
2023/01/25 15:13:11;;;;;;;53.17;24.27;;;2.00;99.90;;;;;;5093697;28;20110;-69
2023/01/25 15:15:48;;;;;;;52.35;22.50;;;2.00;99.90;;;;;;5075107;28;20048;-69
2023/01/25 15:18:50;;;;;;;50.80;23.00;;;2.10;99.90;;;;;;5093298;28;20040;-69
2023/01/25 15:21:31;;;;;;;57.60;26.63;;;2.00;99.90;;;;;;5093073;28;20063;-69
2023/01/25 15:24:03;;;;;;;62.03;28.23;;;2.00;99.90;;;;;;5093299;28;20035;-69
2023/01/25 15:26:31;;;;;;;60.17;27.95;;;1.80;99.90;;;;;;5093097;28;20084;-69
2023/01/25 15:29:04;;;;;;;65.43;28.25;;;1.90;99.90;;;;;;5074973;28;20040;-69
2023/01/25 15:31:32;;;;;;;76.57;28.02;;;1.90;99.90;;;;;;5092368;28;20046;-69
2023/01/25 15:34:00;;;;;;;63.90;26.80;;;1.80;99.90;;;;;;5093143;28;20036;-69
2023/01/25 15:36:26;;;;;;;66.15;29.40;;;1.60;99.90;;;;;;5074884;28;20036;-69
2023/01/25 15:38:52;;;;;;;61.47;26.35;;;1.80;99.90;;;;;;5092959;28;20051;-69
2023/01/25 15:41:17;;;;;;;63.83;26.95;;;1.70;99.90;;;;;;5091112;28;20044;-69
2023/01/25 15:43:47;;;;;;;65.80;27.45;;;1.70;99.90;;;;;;5074473;28;20046;-69
2023/01/25 15:46:22;;;;;;;61.30;26.65;;;1.50;99.90;;;;;;5092162;28;20044;-69
2023/01/25 15:48:49;;;;;;;59.70;27.45;;;1.60;99.90;;;;;;5092701;28;20040;-69
2023/01/25 15:51:15;;;;;;;56.30;27.63;;;1.60;99.90;;;;;;5074024;28;20127;-69
2023/01/25 15:53:40;;;;;;;61.13;26.00;;;1.70;99.90;;;;;;5074417;28;20048;-69
2023/01/25 15:56:16;;;;;;;53.17;25.73;;;1.60;99.90;;;;;;5074234;28;20039;-69
2023/01/25 15:58:48;;;;;;;63.47;27.42;;;1.90;99.90;;;;;;5092717;28;20044;-69
2023/01/25 16:01:14;;;;;;;68.25;29.38;;;1.70;99.90;;;;;;5092282;28;20122;-69
2023/01/25 16:03:40;;;;;;;62.50;26.38;;;1.80;99.90;;;;;;5092510;28;20039;-69
2023/01/25 16:06:29;;;;;;;61.70;27.10;;;1.70;99.90;;;;;;5057502;28;20067;-69
2023/01/25 16:08:57;;;;;;;64.47;27.92;;;1.70;99.90;;;;;;5092228;28;20057;-69
2023/01/25 16:11:23;;;;;;;64.15;27.55;;;1.80;99.90;;;;;;5074010;28;20418;-69
2023/01/25 16:13:48;;;;;;;57.65;29.00;;;1.80;99.90;;;;;;5074374;28;20044;-69
2023/01/25 16:16:21;;;;;;;62.40;27.80;;;1.70;99.90;;;;;;5092119;28;20143;-70
2023/01/25 16:18:47;;;;;;;67.82;28.45;;;1.80;99.90;;;;;;5092257;28;20093;-70
2023/01/25 16:21:13;;;;;;;63.53;27.75;;;1.80;99.90;;;;;;5073497;28;20052;-70